Time,TemperatureF,DewpointF,PressureIn,WindDirection,WindDirectionDegrees,WindSpeedMPH,WindSpeedGustMPH,Humidity,HourlyPrecipIn,Conditions,Clouds,dailyrainin,SolarRadiationWatts/m^2,SoftwareType,DateUTC
2013-03-26 00:22:00,31.0,29.0,-100.00,NNE,24,0.0,1.0,91,0.00,,,0.00,0.000000,,2013-03-26 07:22:00,
2013-03-26 00:32:00,31.0,29.0,-100.00,NNE,24,0.0,1.0,91,0.00,,,0.00,0.000000,,2013-03-26 07:32:00,
2013-03-26 00:42:00,31.0,29.0,-100.00,NNE,24,0.0,1.0,91,0.00,,,0.00,0.000000,,2013-03-26 07:42:00,
2013-03-26 01:12:00,31.0,29.0,-100.00,NNE,24,0.0,0.0,91,0.00,,,0.00,0.000000,,2013-03-26 08:12:00,
2013-03-26 01:22:00,31.0,29.0,-100.00,NNE,24,0.0,0.0,91,0.00,,,0.00,0.000000,,2013-03-26 08:22:00,
2013-03-26 01:32:00,31.0,29.0,-100.00,NNE,24,0.0,0.0,91,0.00,,,0.00,0.000000,,2013-03-26 08:32:00,
2013-03-26 01:42:00,31.0,29.0,-100.00,NNE,24,0.0,0.0,91,0.00,,,0.00,0.000000,,2013-03-26 08:42:00,
2013-03-26 01:51:00,31.0,29.0,-100.00,NNE,24,0.0,0.0,91,0.00,,,0.00,0.000000,,2013-03-26 08:51:00,
2013-03-26 01:52:00,30.0,28.0,-100.00,NNE,24,0.0,0.0,93,0.00,,,0.00,0.000000,,2013-03-26 08:52:00,
2013-03-26 02:22:00,30.0,28.0,-100.00,NNE,24,0.0,0.0,93,0.00,,,0.00,0.000000,,2013-03-26 09:22:00,
2013-03-26 02:32:00,30.0,28.0,-100.00,NNE,24,0.0,0.0,93,0.00,,,0.00,0.000000,,2013-03-26 09:32:00,
2013-03-26 02:42:00,30.0,28.0,-100.00,NNE,24,0.0,0.0,93,0.00,,,0.00,0.000000,,2013-03-26 09:42:00,
2013-03-26 02:52:00,28.0,27.0,-100.00,NNE,24,0.0,1.0,95,0.00,,,0.00,0.000000,,2013-03-26 09:52:00,
2013-03-26 03:12:00,28.0,27.0,-100.00,NNE,24,0.0,1.0,95,0.00,,,0.00,0.000000,,2013-03-26 10:12:00,
2013-03-26 03:22:00,28.0,27.0,-100.00,NNE,24,0.0,1.0,95,0.00,,,0.00,0.000000,,2013-03-26 10:22:00,
2013-03-26 03:32:00,28.0,27.0,-100.00,NNE,24,0.0,1.0,95,0.00,,,0.00,0.000000,,2013-03-26 10:32:00,
2013-03-26 03:42:00,28.0,27.0,-100.00,NNE,24,0.0,1.0,95,0.00,,,0.00,0.000000,,2013-03-26 10:42:00,
2013-03-26 04:12:00,26.0,25.0,-100.00,NNE,23,0.0,0.0,96,0.00,,,0.00,0.000000,,2013-03-26 11:12:00,
2013-03-26 04:22:00,26.0,25.0,-100.00,NNE,23,0.0,0.0,96,0.00,,,0.00,0.000000,,2013-03-26 11:22:00,
2013-03-26 04:32:00,26.0,25.0,-100.00,NNE,23,0.0,0.0,96,0.00,,,0.00,0.000000,,2013-03-26 11:32:00,
2013-03-26 04:42:00,26.0,25.0,-100.00,NNE,23,0.0,0.0,96,0.00,,,0.00,0.000000,,2013-03-26 11:42:00,
2013-03-26 04:51:00,26.0,25.0,-100.00,NNE,23,0.0,0.0,96,0.00,,,0.00,0.000000,,2013-03-26 11:51:00,
2013-03-26 04:52:00,25.0,24.0,-100.00,NNE,23,0.0,0.0,96,0.00,,,0.00,0.000000,,2013-03-26 11:52:00,
2013-03-26 05:21:00,25.0,24.0,-100.00,NNE,23,0.0,0.0,96,0.00,,,0.00,0.000000,,2013-03-26 12:21:00,
2013-03-26 05:32:00,25.0,24.0,-100.00,NNE,23,0.0,0.0,96,0.00,,,0.00,0.000000,,2013-03-26 12:32:00,
2013-03-26 05:42:00,25.0,24.0,-100.00,NNE,23,0.0,0.0,96,0.00,,,0.00,0.000000,,2013-03-26 12:42:00,
2013-03-26 05:52:00,25.0,24.0,-100.00,NNE,23,0.0,0.0,96,0.00,,,0.00,0.000000,,2013-03-26 12:52:00,
2013-03-26 06:22:00,25.0,24.0,-100.00,NNE,23,0.0,0.0,96,0.00,,,0.00,0.000000,,2013-03-26 13:22:00,
2013-03-26 06:32:00,25.0,24.0,-100.00,NNE,23,0.0,0.0,96,0.00,,,0.00,0.000000,,2013-03-26 13:32:00,
2013-03-26 06:42:00,25.0,24.0,-100.00,NNE,23,0.0,0.0,96,0.00,,,0.00,0.000000,,2013-03-26 13:42:00,
2013-03-26 07:11:00,23.0,22.0,-100.00,NNE,24,0.0,0.0,95,0.00,,,0.00,2.000000,,2013-03-26 14:11:00,
2013-03-26 07:22:00,23.0,22.0,-100.00,NNE,24,0.0,0.0,95,0.00,,,0.00,2.000000,,2013-03-26 14:22:00,
2013-03-26 07:32:00,23.0,22.0,-100.00,NNE,24,0.0,0.0,95,0.00,,,0.00,2.000000,,2013-03-26 14:32:00,
2013-03-26 07:42:00,23.0,22.0,-100.00,NNE,24,0.0,0.0,95,0.00,,,0.00,2.000000,,2013-03-26 14:42:00,
2013-03-26 07:51:00,23.0,22.0,-100.00,NNE,24,0.0,0.0,95,0.00,,,0.00,2.000000,,2013-03-26 14:51:00,
2013-03-26 07:52:00,24.0,23.0,-100.00,NNE,19,0.0,1.0,94,0.00,,,0.00,15.000000,,2013-03-26 14:52:00,
2013-03-26 08:22:00,24.0,23.0,-100.00,NNE,19,0.0,1.0,94,0.00,,,0.00,15.000000,,2013-03-26 15:22:00,
2013-03-26 08:33:00,24.0,23.0,-100.00,NNE,19,0.0,1.0,94,0.00,,,0.00,15.000000,,2013-03-26 15:33:00,
2013-03-26 08:42:00,24.0,23.0,-100.00,NNE,19,0.0,1.0,94,0.00,,,0.00,15.000000,,2013-03-26 15:42:00,
2013-03-26 08:52:00,29.0,27.0,-100.00,NNE,19,0.0,0.0,94,0.00,,,0.00,65.000000,,2013-03-26 15:52:00,
2013-03-26 09:12:00,29.0,27.0,-100.00,NNE,19,0.0,0.0,94,0.00,,,0.00,65.000000,,2013-03-26 16:12:00,
2013-03-26 09:22:00,29.0,27.0,-100.00,NNE,19,0.0,0.0,94,0.00,,,0.00,65.000000,,2013-03-26 16:22:00,
2013-03-26 09:32:00,29.0,27.0,-100.00,NNE,19,0.0,0.0,94,0.00,,,0.00,65.000000,,2013-03-26 16:32:00,
2013-03-26 09:42:00,29.0,27.0,-100.00,NNE,19,0.0,0.0,94,0.00,,,0.00,65.000000,,2013-03-26 16:42:00,
2013-03-26 09:52:00,34.0,33.0,-100.00,East,81,0.0,2.0,96,-99.99,,,0.00,66.000000,,2013-03-26 16:52:00,
2013-03-26 10:22:00,34.0,33.0,-100.00,East,81,0.0,2.0,96,-99.99,,,0.00,66.000000,,2013-03-26 17:22:00,
2013-03-26 10:32:00,34.0,33.0,-100.00,East,81,0.0,2.0,96,-99.99,,,0.00,66.000000,,2013-03-26 17:32:00,
2013-03-26 10:42:00,34.0,33.0,-100.00,East,81,0.0,2.0,96,-99.99,,,0.00,66.000000,,2013-03-26 17:42:00,
2013-03-26 10:52:00,47.0,34.0,-100.00,NE,45,0.0,2.0,61,-99.99,,,0.00,309.000000,,2013-03-26 17:52:00,
2013-03-26 11:23:00,47.0,34.0,-100.00,NE,45,0.0,2.0,61,-99.99,,,0.00,309.000000,,2013-03-26 18:23:00,
2013-03-26 11:33:00,47.0,34.0,-100.00,NE,45,0.0,2.0,61,-99.99,,,0.00,309.000000,,2013-03-26 18:33:00,
2013-03-26 11:42:00,47.0,34.0,-100.00,NE,45,0.0,2.0,61,-99.99,,,0.00,309.000000,,2013-03-26 18:42:00,
2013-03-26 11:52:00,51.0,31.0,-100.00,SSE,151,1.0,9.0,47,0.00,,,0.00,413.000000,,2013-03-26 18:52:00,
2013-03-26 12:22:00,51.0,31.0,-100.00,SSE,151,1.0,9.0,47,0.00,,,0.00,413.000000,,2013-03-26 19:22:00,
2013-03-26 12:32:00,51.0,31.0,-100.00,SSE,151,1.0,9.0,47,0.00,,,0.00,413.000000,,2013-03-26 19:32:00,
2013-03-26 12:42:00,51.0,31.0,-100.00,SSE,151,1.0,9.0,47,0.00,,,0.00,413.000000,,2013-03-26 19:42:00,
2013-03-26 12:52:00,58.0,28.0,-100.00,SW,226,2.0,8.0,32,0.00,,,0.00,731.000000,,2013-03-26 19:52:00,
2013-03-26 13:22:00,58.0,28.0,-100.00,SW,226,2.0,8.0,32,0.00,,,0.00,731.000000,,2013-03-26 20:22:00,
2013-03-26 13:32:00,58.0,28.0,-100.00,SW,226,2.0,8.0,32,0.00,,,0.00,731.000000,,2013-03-26 20:32:00,
2013-03-26 13:42:00,58.0,28.0,-100.00,SW,226,2.0,8.0,32,0.00,,,0.00,731.000000,,2013-03-26 20:42:00,
2013-03-26 14:22:00,47.0,33.0,-100.00,NNW,345,0.0,7.0,58,0.00,,,0.00,244.000000,,2013-03-26 21:22:00,
2013-03-26 14:52:00,56.0,31.0,-100.00,NE,45,2.0,6.0,38,0.00,,,0.00,347.000000,,2013-03-26 21:52:00,
2013-03-26 15:22:00,56.0,31.0,-100.00,NE,45,2.0,6.0,38,0.00,,,0.00,347.000000,,2013-03-26 22:22:00,
2013-03-26 15:33:00,56.0,31.0,-100.00,NE,45,2.0,6.0,38,0.00,,,0.00,347.000000,,2013-03-26 22:33:00,
2013-03-26 15:42:00,56.0,31.0,-100.00,NE,45,2.0,6.0,38,0.00,,,0.00,347.000000,,2013-03-26 22:42:00,
2013-03-26 16:10:00,55.0,32.0,-100.00,ENE,78,0.0,6.0,41,0.00,,,0.00,401.000000,,2013-03-26 23:10:00,
2013-03-26 16:22:00,55.0,32.0,-100.00,ENE,78,0.0,6.0,41,0.00,,,0.00,401.000000,,2013-03-26 23:22:00,
2013-03-26 16:31:00,55.0,32.0,-100.00,ENE,78,0.0,6.0,41,0.00,,,0.00,401.000000,,2013-03-26 23:31:00,
2013-03-26 16:42:00,55.0,32.0,-100.00,ENE,78,0.0,6.0,41,0.00,,,0.00,401.000000,,2013-03-26 23:42:00,
2013-03-26 16:51:00,55.0,32.0,-100.00,ENE,78,0.0,6.0,41,0.00,,,0.00,401.000000,,2013-03-26 23:51:00,
2013-03-26 17:12:00,45.0,33.0,-100.00,North,349,1.0,4.0,63,0.00,,,0.00,171.000000,,2013-03-27 00:12:00,
2013-03-26 17:22:00,45.0,33.0,-100.00,North,349,1.0,4.0,63,0.00,,,0.00,171.000000,,2013-03-27 00:22:00,
2013-03-26 18:12:00,41.0,33.0,-100.00,North,4,2.0,4.0,73,-99.99,,,0.00,98.000000,,2013-03-27 01:12:00,
2013-03-26 18:22:00,41.0,33.0,-100.00,North,4,2.0,4.0,73,-99.99,,,0.00,98.000000,,2013-03-27 01:22:00,
2013-03-26 19:12:00,38.0,33.0,-100.00,North,7,0.0,4.0,81,-99.99,,,0.00,37.000000,,2013-03-27 02:12:00,
2013-03-26 19:22:00,38.0,33.0,-100.00,North,7,0.0,4.0,81,-99.99,,,0.00,37.000000,,2013-03-27 02:22:00,
2013-03-26 19:32:00,38.0,33.0,-100.00,North,7,0.0,4.0,81,-99.99,,,0.00,37.000000,,2013-03-27 02:32:00,
2013-03-26 19:52:00,34.0,31.0,-100.00,North,9,0.0,3.0,88,0.00,,,0.00,1.000000,,2013-03-27 02:52:00,
2013-03-26 20:22:00,34.0,31.0,-100.00,North,9,0.0,3.0,88,0.00,,,0.00,1.000000,,2013-03-27 03:22:00,
2013-03-26 20:42:00,34.0,31.0,-100.00,North,9,0.0,3.0,88,0.00,,,0.00,1.000000,,2013-03-27 03:42:00,
2013-03-26 20:52:00,33.0,30.0,-100.00,NNE,21,1.0,2.0,89,0.00,,,0.00,0.000000,,2013-03-27 03:52:00,
2013-03-26 21:23:00,33.0,30.0,-100.00,NNE,21,1.0,2.0,89,0.00,,,0.00,0.000000,,2013-03-27 04:23:00,
2013-03-26 21:33:00,33.0,30.0,-100.00,NNE,21,1.0,2.0,89,0.00,,,0.00,0.000000,,2013-03-27 04:33:00,
2013-03-26 21:42:00,33.0,30.0,-100.00,NNE,21,1.0,2.0,89,0.00,,,0.00,0.000000,,2013-03-27 04:42:00,
2013-03-26 21:52:00,33.0,30.0,-100.00,NNE,24,1.0,2.0,89,0.00,,,0.00,0.000000,,2013-03-27 04:52:00,
2013-03-26 22:12:00,33.0,30.0,-100.00,NNE,24,1.0,2.0,89,0.00,,,0.00,0.000000,,2013-03-27 05:12:00,
2013-03-26 22:22:00,33.0,30.0,-100.00,NNE,24,1.0,2.0,89,0.00,,,0.00,0.000000,,2013-03-27 05:22:00,
2013-03-26 22:32:00,33.0,30.0,-100.00,NNE,24,1.0,2.0,89,0.00,,,0.00,0.000000,,2013-03-27 05:32:00,
2013-03-26 22:42:00,33.0,30.0,-100.00,NNE,24,1.0,2.0,89,0.00,,,0.00,0.000000,,2013-03-27 05:42:00,
2013-03-26 22:52:00,31.0,29.0,-100.00,NNE,14,0.0,2.0,92,0.00,,,0.00,0.000000,,2013-03-27 05:52:00,
2013-03-26 23:12:00,31.0,29.0,-100.00,NNE,14,0.0,2.0,92,0.00,,,0.00,0.000000,,2013-03-27 06:12:00,
2013-03-26 23:22:00,31.0,29.0,-100.00,NNE,14,0.0,2.0,92,0.00,,,0.00,0.000000,,2013-03-27 06:22:00,
2013-03-26 23:32:00,31.0,29.0,-100.00,NNE,14,0.0,2.0,92,0.00,,,0.00,0.000000,,2013-03-27 06:32:00,
2013-03-26 23:42:00,31.0,29.0,-100.00,NNE,14,0.0,2.0,92,0.00,,,0.00,0.000000,,2013-03-27 06:42:00,
2013-03-26 23:52:00,30.0,28.0,-100.00,NE,34,0.0,1.0,92,0.00,,,0.00,0.000000,,2013-03-27 06:52:00,